createdAt,value
2019-02-05T00:01:39.763Z,10.30
2019-02-05T00:04:20.255Z,10.33
2019-02-05T00:07:00.771Z,9.30
2019-02-05T00:09:41.258Z,12.70
2019-02-05T00:12:21.859Z,9.13
2019-02-05T00:15:02.351Z,8.20
2019-02-05T00:17:43.109Z,10.30
2019-02-05T00:20:23.586Z,13.57
2019-02-05T00:23:04.311Z,8.97
2019-02-05T00:25:44.896Z,7.73
2019-02-05T00:28:25.914Z,11.13
2019-02-05T00:31:06.832Z,7.30
2019-02-05T00:33:47.166Z,10.37
2019-02-05T00:36:27.710Z,11.07
2019-02-05T00:39:08.247Z,15.07
2019-02-05T00:41:48.870Z,10.17
2019-02-05T00:44:29.655Z,7.93
2019-02-05T00:47:10.113Z,11.97
2019-02-05T00:49:50.640Z,8.90
2019-02-05T00:52:31.298Z,9.30
2019-02-05T00:55:11.858Z,9.47
2019-02-05T00:57:52.995Z,14.33
2019-02-05T01:00:33.666Z,9.70
2019-02-05T01:03:14.500Z,10.90
2019-02-05T01:05:54.950Z,9.83
2019-02-05T01:08:35.924Z,12.93
2019-02-05T01:11:16.330Z,9.20
2019-02-05T01:13:57.058Z,12.50
2019-02-05T01:16:37.802Z,8.93
2019-02-05T01:19:18.483Z,9.57
2019-02-05T01:21:59.476Z,9.30
2019-02-05T01:24:40.358Z,7.90
2019-02-05T01:27:20.790Z,7.77
2019-02-05T01:30:01.885Z,11.13
2019-02-05T01:32:42.271Z,7.77
2019-02-05T01:35:22.800Z,8.60
2019-02-05T01:38:03.486Z,13.50
2019-02-05T01:40:44.357Z,6.87
2019-02-05T01:43:25.024Z,10.13
2019-02-05T01:46:05.434Z,10.77
2019-02-05T01:48:46.279Z,8.20
2019-02-05T01:51:26.734Z,8.73
2019-02-05T01:54:07.479Z,15.80
2019-02-05T01:56:48.056Z,10.00
2019-02-05T01:59:28.561Z,10.00
2019-02-05T02:02:09.173Z,9.83
2019-02-05T02:04:50.137Z,10.43
2019-02-05T02:07:30.683Z,8.60
2019-02-05T02:10:11.394Z,9.17
2019-02-05T02:12:52.030Z,10.73
2019-02-05T02:15:33.130Z,8.47
2019-02-05T02:18:14.322Z,8.47
2019-02-05T02:20:55.007Z,10.80
2019-02-05T02:23:36.149Z,11.17
2019-02-05T02:26:16.638Z,12.27
2019-02-05T02:28:57.050Z,11.90
2019-02-05T02:31:38.228Z,10.53
2019-02-05T02:34:18.720Z,11.83
2019-02-05T02:36:59.015Z,13.87
2019-02-05T02:39:39.487Z,9.77
2019-02-05T02:42:20.186Z,11.37
2019-02-05T02:45:01.563Z,12.80
2019-02-05T02:47:42.143Z,11.40
2019-02-05T02:50:22.741Z,13.27
2019-02-05T02:53:03.332Z,11.13
2019-02-05T02:55:44.469Z,10.93
2019-02-05T02:58:25.151Z,11.87
2019-02-05T03:01:06.888Z,10.03
2019-02-05T03:03:47.396Z,9.30
2019-02-05T03:06:28.182Z,11.33
2019-02-05T03:09:10.819Z,10.70
2019-02-05T03:11:51.478Z,9.40
2019-02-05T03:14:32.735Z,8.20
2019-02-05T03:17:13.513Z,11.03
2019-02-05T03:19:54.343Z,9.67
2019-02-05T03:22:34.688Z,8.20
2019-02-05T03:25:15.249Z,9.10
2019-02-05T03:27:55.837Z,9.10
2019-02-05T03:30:36.437Z,9.80
2019-02-05T03:33:17.164Z,12.20
2019-02-05T03:35:57.603Z,9.13
2019-02-05T03:38:38.528Z,7.90
2019-02-05T03:41:18.979Z,7.80
2019-02-05T03:43:59.550Z,12.00
2019-02-05T03:46:40.821Z,8.47
2019-02-05T03:49:21.599Z,8.70
2019-02-05T03:52:02.252Z,7.40
2019-02-05T03:54:42.930Z,8.50
2019-02-05T03:57:30.961Z,8.27
2019-02-05T04:00:06.033Z,7.90
2019-02-05T04:02:47.195Z,11.77
2019-02-05T04:05:27.814Z,9.03
2019-02-05T04:08:08.758Z,7.27
2019-02-05T04:10:50.010Z,9.93
2019-02-05T04:13:30.671Z,9.10
2019-02-05T04:16:11.314Z,11.97
2019-02-05T04:18:52.073Z,8.10
2019-02-05T04:21:32.767Z,8.60
2019-02-05T04:24:13.320Z,9.77
2019-02-05T04:26:54.180Z,9.23
2019-02-05T04:29:34.852Z,9.53
2019-02-05T04:32:15.683Z,8.70
2019-02-05T04:34:56.284Z,10.23
2019-02-05T04:37:36.868Z,10.53
2019-02-05T04:40:17.767Z,10.93
2019-02-05T04:42:58.469Z,9.60
2019-02-05T04:49:27.303Z,11.20
2019-02-05T04:52:34.520Z,10.40
2019-02-05T04:55:41.961Z,8.33
2019-02-05T05:02:21.438Z,8.20
2019-02-05T05:05:28.642Z,9.30
2019-02-05T05:08:35.847Z,8.33
2019-02-05T05:11:23.841Z,11.70
2019-02-05T05:14:04.852Z,13.07
2019-02-05T05:16:45.428Z,10.60
2019-02-05T05:19:25.806Z,13.20
2019-02-05T05:22:06.235Z,11.70
2019-02-05T05:24:46.901Z,14.03
2019-02-05T05:27:27.424Z,14.93
2019-02-05T05:30:07.993Z,11.83
2019-02-05T05:32:50.193Z,12.57
2019-02-05T05:35:41.667Z,18.23
2019-02-05T05:38:13.855Z,15.33
2019-02-05T05:40:54.467Z,16.63
2019-02-05T05:43:35.836Z,18.47
2019-02-05T05:46:17.246Z,16.30
2019-02-05T05:48:58.299Z,16.27
2019-02-05T05:51:39.035Z,14.20
2019-02-05T05:54:19.465Z,16.10
2019-02-05T05:57:00.283Z,13.20
2019-02-05T05:59:41.313Z,19.67
2019-02-05T06:02:22.590Z,20.73
2019-02-05T06:05:04.172Z,16.50
2019-02-05T06:07:45.203Z,15.57
2019-02-05T06:10:25.749Z,13.07
2019-02-05T06:13:06.582Z,14.67
2019-02-05T06:15:47.249Z,14.33
2019-02-05T06:18:28.878Z,17.07
2019-02-05T06:21:09.294Z,14.80
2019-02-05T06:23:49.731Z,25.93
2019-02-05T06:26:31.103Z,16.10
2019-02-05T06:29:11.724Z,17.77
2019-02-05T06:31:52.291Z,12.97
2019-02-05T06:34:33.774Z,16.23
2019-02-05T06:37:14.600Z,14.10
2019-02-05T06:39:55.748Z,13.27
2019-02-05T06:42:36.190Z,14.93
2019-02-05T06:45:16.836Z,13.70
2019-02-05T06:47:58.100Z,14.20
2019-02-05T06:50:38.724Z,15.80
2019-02-05T06:53:19.434Z,18.67
2019-02-05T06:56:00.010Z,15.93
2019-02-05T06:58:46.381Z,14.40
2019-02-05T07:01:23.659Z,17.50
2019-02-05T07:04:04.338Z,17.10
2019-02-05T07:06:45.008Z,15.80
2019-02-05T07:09:25.613Z,13.47
2019-02-05T07:12:06.097Z,16.73
2019-02-05T07:14:46.492Z,14.57
2019-02-05T07:17:27.123Z,15.20
2019-02-05T07:20:07.934Z,11.77
2019-02-05T07:22:48.708Z,11.60
2019-02-05T07:25:29.774Z,12.73
2019-02-05T07:28:10.658Z,11.33
2019-02-05T07:30:51.169Z,12.47
2019-02-05T07:33:31.778Z,12.27
2019-02-05T07:36:12.270Z,12.67
2019-02-05T07:38:52.950Z,12.07
2019-02-05T07:41:33.398Z,13.10
2019-02-05T07:44:14.175Z,13.27
2019-02-05T07:46:55.022Z,14.60
2019-02-05T07:49:35.835Z,15.37
2019-02-05T07:52:16.703Z,16.93
2019-02-05T07:54:57.831Z,13.93
2019-02-05T07:57:38.807Z,16.80
2019-02-05T08:00:19.453Z,16.47
2019-02-05T08:03:00.529Z,14.63
2019-02-05T08:05:40.998Z,15.07
2019-02-05T08:08:22.381Z,15.23
2019-02-05T08:11:03.040Z,18.83
2019-02-05T08:13:43.504Z,19.50
2019-02-05T08:16:23.966Z,15.73
2019-02-05T08:19:04.628Z,17.63
2019-02-05T08:21:45.219Z,18.07
2019-02-05T08:24:25.651Z,15.60
2019-02-05T08:27:06.338Z,16.13
2019-02-05T08:29:47.241Z,18.20
2019-02-05T08:32:27.976Z,18.47
2019-02-05T08:35:09.468Z,17.67
2019-02-05T08:37:50.189Z,16.43
2019-02-05T08:40:30.837Z,17.70
2019-02-05T08:43:11.792Z,16.20
2019-02-05T08:45:56.793Z,15.43
2019-02-05T08:48:35.138Z,27.00
2019-02-05T08:51:15.926Z,24.30
2019-02-05T08:53:56.682Z,20.83
2019-02-05T08:56:37.514Z,22.60
2019-02-05T08:59:18.252Z,23.30
2019-02-05T09:01:59.030Z,24.30
2019-02-05T09:04:39.969Z,20.67
2019-02-05T09:07:21.244Z,21.50
2019-02-05T09:10:02.092Z,25.77
2019-02-05T09:12:42.691Z,16.00
2019-02-05T09:15:29.403Z,15.93
2019-02-05T09:18:06.149Z,35.20
2019-02-05T09:20:46.697Z,18.10
2019-02-05T09:23:27.292Z,14.63
2019-02-05T09:26:08.240Z,17.93
2019-02-05T09:28:49.005Z,16.93
2019-02-05T09:31:30.425Z,16.07
2019-02-05T09:34:11.234Z,17.17
2019-02-05T09:36:51.887Z,19.23
2019-02-05T09:39:32.502Z,22.93
2019-02-05T09:42:13.388Z,15.90
2019-02-05T09:44:54.118Z,15.03
2019-02-05T09:47:34.716Z,17.17
2019-02-05T09:50:16.089Z,18.27
2019-02-05T09:52:56.810Z,14.87
2019-02-05T09:55:37.247Z,12.70
2019-02-05T09:58:18.016Z,16.33
2019-02-05T10:00:59.793Z,13.90
2019-02-05T10:03:40.259Z,14.30
2019-02-05T10:06:21.076Z,15.83
2019-02-05T10:09:01.546Z,12.60
2019-02-05T10:11:42.118Z,14.83
2019-02-05T10:14:22.763Z,15.20
2019-02-05T10:17:03.674Z,15.20
2019-02-05T10:19:44.380Z,14.23
2019-02-05T10:22:24.939Z,13.87
2019-02-05T10:25:05.459Z,14.20
2019-02-05T10:27:45.974Z,13.80
2019-02-05T10:30:26.699Z,23.73
2019-02-05T10:33:07.323Z,12.47
2019-02-05T10:35:48.031Z,15.90
2019-02-05T10:38:28.824Z,14.37
2019-02-05T10:41:09.658Z,12.40
2019-02-05T10:43:50.271Z,13.20
2019-02-05T10:46:30.926Z,14.43
2019-02-05T10:49:11.719Z,14.20
2019-02-05T10:51:52.312Z,17.10
2019-02-05T10:54:35.343Z,15.30
2019-02-05T10:57:15.531Z,12.87
2019-02-05T11:00:07.282Z,14.43
2019-02-05T11:02:39.193Z,12.30
2019-02-05T11:05:20.184Z,12.57
2019-02-05T11:08:00.854Z,10.60
2019-02-05T11:10:41.294Z,11.57
2019-02-05T11:13:22.185Z,12.13
2019-02-05T11:16:03.486Z,13.40
2019-02-05T11:18:47.419Z,11.07
2019-02-05T11:21:28.379Z,13.87
2019-02-05T11:24:09.314Z,15.83
2019-02-05T11:26:50.043Z,11.00
2019-02-05T11:29:30.605Z,18.47
2019-02-05T11:32:11.531Z,12.30
2019-02-05T11:34:52.363Z,12.17
2019-02-05T11:37:32.840Z,16.53
2019-02-05T11:40:13.366Z,12.80
2019-02-05T11:42:54.012Z,13.07
2019-02-05T11:45:35.188Z,14.73
2019-02-05T11:48:15.814Z,12.67
2019-02-05T11:50:56.430Z,12.27
2019-02-05T11:53:37.174Z,11.93
2019-02-05T11:56:17.760Z,14.43
2019-02-05T11:58:58.912Z,11.73
2019-02-05T12:01:39.674Z,16.10
2019-02-05T12:04:20.154Z,10.30
2019-02-05T12:07:01.797Z,13.50
2019-02-05T12:09:42.306Z,11.60
2019-02-05T12:12:22.889Z,18.20
2019-02-05T12:15:03.727Z,15.80
2019-02-05T12:17:44.451Z,15.37
2019-02-05T12:20:24.953Z,19.23
2019-02-05T12:23:05.501Z,23.50
2019-02-05T12:25:46.546Z,26.20
2019-02-05T12:28:26.875Z,12.73
2019-02-05T12:31:07.674Z,10.60
2019-02-05T12:33:48.481Z,21.50
2019-02-05T12:36:29.120Z,12.93
2019-02-05T12:39:09.931Z,32.37
2019-02-05T12:41:50.501Z,19.77
2019-02-05T12:44:31.283Z,23.60
2019-02-05T12:47:12.273Z,14.83
2019-02-05T12:49:53.002Z,15.03
2019-02-05T12:52:33.693Z,27.63
2019-02-05T12:55:16.286Z,27.27
2019-02-05T12:57:57.270Z,24.80
2019-02-05T13:00:37.923Z,33.13
2019-02-05T13:03:19.039Z,12.77
2019-02-05T13:06:00.267Z,23.27
2019-02-05T13:08:41.746Z,24.97
2019-02-05T13:11:22.227Z,18.93
2019-02-05T13:14:02.789Z,18.73
2019-02-05T13:16:43.627Z,23.20
2019-02-05T13:19:24.206Z,16.33
2019-02-05T13:22:04.632Z,13.90
2019-02-05T13:24:45.435Z,19.00
2019-02-05T13:27:25.953Z,15.73
2019-02-05T13:30:06.786Z,22.83
2019-02-05T13:32:47.502Z,21.40
2019-02-05T13:35:28.154Z,25.30
2019-02-05T13:38:08.989Z,21.43
2019-02-05T13:40:49.899Z,15.57
2019-02-05T13:43:30.626Z,16.17
2019-02-05T13:46:11.331Z,14.67
2019-02-05T13:48:51.858Z,16.20
2019-02-05T13:51:32.430Z,17.43
2019-02-05T13:54:13.235Z,15.13
2019-02-05T13:56:54.247Z,16.20
2019-02-05T13:59:34.811Z,13.67
2019-02-05T14:02:15.286Z,12.17
2019-02-05T14:04:55.982Z,15.30
2019-02-05T14:07:36.591Z,14.30
2019-02-05T14:10:17.211Z,16.70
2019-02-05T14:12:57.815Z,13.20
2019-02-05T14:15:38.411Z,14.70
2019-02-05T14:18:21.953Z,12.33
2019-02-05T14:21:02.047Z,15.10
2019-02-05T14:23:42.783Z,14.33
2019-02-05T14:26:23.467Z,17.60
2019-02-05T14:29:04.362Z,14.80
2019-02-05T14:31:44.963Z,18.73
2019-02-05T14:34:25.883Z,14.80
2019-02-05T14:37:06.703Z,19.00
2019-02-05T14:39:48.998Z,18.00
2019-02-05T14:42:29.935Z,18.40
2019-02-05T14:45:10.358Z,13.97
2019-02-05T14:47:51.419Z,16.13
2019-02-05T14:50:32.422Z,20.50
2019-02-05T14:53:13.019Z,18.73
2019-02-05T14:55:53.801Z,18.50
2019-02-05T14:58:34.784Z,17.97
2019-02-05T15:01:15.478Z,18.97
2019-02-05T15:03:56.355Z,27.23
2019-02-05T15:06:36.997Z,21.03
2019-02-05T15:09:17.918Z,16.90
2019-02-05T15:11:59.163Z,18.13
2019-02-05T15:14:39.868Z,17.07
2019-02-05T15:17:20.831Z,18.37
2019-02-05T15:20:01.411Z,14.50
2019-02-05T15:22:41.874Z,21.63
2019-02-05T15:25:22.834Z,23.93
2019-02-05T15:28:03.463Z,21.33
2019-02-05T15:30:44.218Z,18.33
2019-02-05T15:33:44.063Z,20.20
2019-02-05T15:36:31.465Z,23.33
2019-02-05T15:39:12.507Z,20.50
2019-02-05T15:41:53.237Z,21.17
2019-02-05T15:44:34.340Z,20.57
2019-02-05T15:47:14.936Z,21.20
2019-02-05T15:50:05.666Z,22.00
2019-02-05T15:52:37.851Z,20.20
2019-02-05T15:55:20.962Z,23.87
2019-02-05T15:58:01.512Z,19.93
2019-02-05T16:00:42.132Z,20.60
2019-02-05T16:03:22.708Z,22.00
2019-02-05T16:06:03.019Z,21.80
2019-02-05T16:08:43.591Z,19.27
2019-02-05T16:11:24.635Z,24.40
2019-02-05T16:14:05.225Z,27.67
2019-02-05T16:16:45.887Z,22.63
2019-02-05T16:19:26.447Z,25.60
2019-02-05T16:25:03.034Z,24.73
2019-02-05T16:27:43.739Z,18.20
2019-02-05T16:30:25.387Z,24.03
2019-02-05T16:33:06.230Z,24.07
2019-02-05T16:35:47.126Z,25.10
2019-02-05T16:38:28.571Z,24.10
2019-02-05T16:41:09.744Z,23.90
2019-02-05T16:43:50.295Z,22.03
2019-02-05T16:46:31.774Z,23.13
2019-02-05T16:49:12.451Z,23.43
2019-02-05T16:51:53.171Z,22.77
2019-02-05T16:54:34.167Z,19.83
2019-02-05T16:57:15.294Z,21.77
2019-02-05T16:59:55.931Z,23.07
2019-02-05T17:02:37.429Z,21.30
2019-02-05T17:05:17.994Z,23.23
2019-02-05T17:07:59.050Z,26.17
2019-02-05T17:10:38.661Z,26.20
2019-02-05T17:13:26.928Z,21.77
2019-02-05T17:16:14.971Z,26.43
2019-02-05T17:19:03.457Z,24.63
2019-02-05T17:21:53.105Z,24.53
2019-02-05T17:24:41.410Z,22.80
2019-02-05T17:27:29.398Z,22.70
2019-02-05T17:30:20.762Z,26.90
2019-02-05T17:33:08.823Z,28.27
2019-02-05T17:35:57.162Z,23.47
2019-02-05T17:38:45.384Z,25.13
2019-02-05T17:41:33.364Z,24.70
2019-02-05T17:44:21.582Z,27.70
2019-02-05T17:47:09.832Z,20.43
2019-02-05T17:49:58.107Z,22.53
2019-02-05T17:52:46.167Z,23.80
2019-02-05T17:55:36.204Z,31.60
2019-02-05T17:58:24.182Z,28.43
2019-02-05T18:04:08.430Z,23.33
2019-02-05T18:06:56.768Z,24.07
2019-02-05T18:10:03.966Z,27.40
2019-02-05T18:12:52.345Z,28.03
2019-02-05T18:15:32.981Z,27.27
2019-02-05T18:18:13.611Z,28.90
2019-02-05T18:20:54.444Z,23.57
2019-02-05T18:23:35.039Z,28.60
2019-02-05T18:26:15.568Z,30.40
2019-02-05T18:28:56.131Z,24.07
2019-02-05T18:31:36.982Z,27.73
2019-02-05T18:34:17.413Z,30.43
2019-02-05T18:36:57.960Z,24.60
2019-02-05T18:39:40.000Z,28.23
2019-02-05T18:42:20.927Z,24.87
2019-02-05T18:45:01.669Z,28.20
2019-02-05T18:47:42.302Z,27.37
2019-02-05T18:50:23.175Z,29.10
2019-02-05T18:53:03.710Z,27.57
2019-02-05T18:55:44.176Z,23.77
2019-02-05T18:58:26.933Z,29.43
2019-02-05T19:01:07.473Z,26.87
2019-02-05T19:03:48.925Z,27.70
2019-02-05T19:06:30.101Z,24.97
2019-02-05T19:09:10.443Z,26.40
2019-02-05T19:11:50.759Z,25.40
2019-02-05T19:14:31.590Z,27.40
2019-02-05T19:17:12.524Z,20.70
2019-02-05T19:19:53.353Z,28.13
2019-02-05T19:22:33.781Z,28.93
2019-02-05T19:34:25.229Z,37.60
2019-02-05T19:37:05.961Z,30.40
2019-02-05T19:39:47.146Z,30.17
2019-02-05T19:42:27.962Z,28.37
2019-02-05T19:45:28.247Z,32.50
2019-02-05T19:48:14.311Z,30.03
2019-02-05T19:50:54.846Z,30.30
2019-02-05T19:53:35.654Z,31.87
2019-02-05T19:56:16.413Z,27.00
2019-02-05T19:58:56.743Z,26.43
2019-02-05T20:01:37.378Z,27.03
2019-02-05T20:04:18.175Z,32.70
2019-02-05T20:06:58.958Z,28.00
2019-02-05T20:09:39.821Z,28.47
2019-02-05T20:12:21.183Z,29.70
2019-02-05T20:15:02.778Z,28.90
2019-02-05T20:17:44.110Z,28.87
2019-02-05T20:20:25.043Z,34.70
2019-02-05T20:23:06.143Z,30.70
2019-02-05T20:25:46.933Z,31.73
2019-02-05T20:28:28.025Z,34.33
2019-02-05T20:31:08.926Z,30.43
2019-02-05T20:33:50.302Z,31.00
2019-02-05T20:36:31.145Z,28.77
2019-02-05T20:39:11.928Z,21.23
2019-02-05T20:41:53.102Z,26.73
2019-02-05T20:44:34.193Z,28.67
2019-02-05T20:47:15.809Z,23.17
2019-02-05T20:49:56.806Z,28.67
2019-02-05T20:52:37.510Z,20.40
2019-02-05T20:55:18.390Z,25.73
2019-02-05T20:57:58.960Z,23.70
2019-02-05T21:00:39.922Z,21.93
2019-02-05T21:03:21.295Z,20.70
2019-02-05T21:06:01.733Z,23.43
2019-02-05T21:08:42.791Z,21.30
2019-02-05T21:11:23.347Z,23.70
2019-02-05T21:14:04.302Z,22.50
2019-02-05T21:16:45.499Z,20.40
2019-02-05T21:19:26.039Z,21.00
2019-02-05T21:22:08.911Z,21.13
2019-02-05T21:24:49.534Z,21.20
2019-02-05T21:27:30.241Z,25.60
2019-02-05T21:30:10.998Z,22.50
2019-02-05T21:32:51.780Z,24.80
2019-02-05T21:35:33.155Z,21.33
2019-02-05T21:38:14.493Z,25.80
2019-02-05T21:40:55.210Z,20.67
2019-02-05T21:43:35.865Z,23.43
2019-02-05T21:49:05.761Z,21.23
2019-02-05T21:51:46.071Z,21.70
2019-02-05T21:54:26.659Z,24.07
2019-02-05T21:57:07.622Z,24.60
2019-02-05T21:59:48.082Z,21.83
2019-02-05T22:02:28.693Z,21.17
2019-02-05T22:05:09.543Z,22.57
2019-02-05T22:07:49.944Z,24.03
2019-02-05T22:10:31.610Z,21.93
2019-02-05T22:13:12.334Z,22.20
2019-02-05T22:15:52.978Z,21.83
2019-02-05T22:18:33.580Z,20.50
2019-02-05T22:21:14.542Z,21.13
2019-02-05T22:23:55.773Z,21.73
2019-02-05T22:26:36.469Z,20.37
2019-02-05T22:29:17.238Z,18.20
2019-02-05T22:31:58.196Z,22.07
2019-02-05T22:34:39.636Z,20.43
2019-02-05T22:37:21.069Z,19.37
2019-02-05T22:40:01.679Z,19.07
2019-02-05T22:42:42.260Z,18.27
2019-02-05T22:45:22.945Z,21.67
2019-02-05T22:48:03.840Z,28.37
2019-02-05T22:50:44.666Z,22.90
2019-02-05T22:53:25.358Z,25.50
2019-02-05T22:56:05.954Z,20.10
2019-02-05T22:58:46.967Z,21.50
2019-02-05T23:01:27.423Z,21.30
2019-02-05T23:04:08.653Z,16.50
2019-02-05T23:06:49.974Z,22.07
2019-02-05T23:09:30.525Z,18.83
2019-02-05T23:12:11.209Z,21.93
2019-02-05T23:14:51.851Z,18.37
2019-02-05T23:17:32.570Z,19.73
2019-02-05T23:20:13.878Z,19.00
2019-02-05T23:22:56.980Z,17.47
2019-02-05T23:25:37.267Z,18.30
2019-02-05T23:28:17.810Z,19.03
2019-02-05T23:30:58.435Z,20.70
2019-02-05T23:33:39.463Z,16.97
2019-02-05T23:36:20.334Z,16.40
2019-02-05T23:39:01.109Z,20.40
2019-02-05T23:41:41.907Z,17.87
2019-02-05T23:44:22.628Z,19.20
2019-02-05T23:47:03.234Z,15.50
2019-02-05T23:49:44.454Z,17.77
2019-02-05T23:52:25.550Z,17.17
2019-02-05T23:55:05.957Z,17.80
2019-02-05T23:57:46.421Z,21.20
